Time;durP1;ratioP1;P1;durP2;ratioP2;P2;SDS_P1;SDS_P2;PMS_P1;PMS_P2;Temp;Humidity;BMP_temperature;BMP_pressure;BME280_temperature;BME280_humidity;BME280_pressure;Samples;Min_cycle;Max_cycle;Signal;HPM_P1;HPM_P2
2022/02/26 00:01:01;;;;;;;17.77;11.20;;;;;;;0.55;68.68;99657.66;5064041;28;20305;-58
2022/02/26 00:03:26;;;;;;;17.05;10.68;;;;;;;0.46;68.38;99648.16;5063920;28;20037;-58
2022/02/26 00:05:52;;;;;;;15.13;10.07;;;;;;;0.40;69.38;99650.59;5064057;28;20094;-59
2022/02/26 00:08:17;;;;;;;15.32;10.52;;;;;;;0.60;69.52;99657.72;5054637;28;20029;-59
2022/02/26 00:10:45;;;;;;;17.23;11.05;;;;;;;0.47;69.21;99637.13;5058767;28;20021;-59
2022/02/26 00:13:10;;;;;;;18.20;10.82;;;;;;;0.55;68.61;99644.06;5063791;28;20024;-57
2022/02/26 00:15:36;;;;;;;16.70;10.52;;;;;;;0.46;68.77;99639.66;5056092;28;20028;-58
2022/02/26 00:18:01;;;;;;;20.23;11.65;;;;;;;0.42;69.63;99620.03;5063240;28;20075;-57
2022/02/26 00:20:27;;;;;;;19.95;10.75;;;;;;;0.41;68.72;99651.44;5063427;28;20880;-58
2022/02/26 00:22:53;;;;;;;16.48;10.48;;;;;;;0.46;69.13;99655.78;5063845;28;20052;-57
2022/02/26 00:25:18;;;;;;;15.77;10.23;;;;;;;0.49;69.15;99653.28;5062378;28;20078;-58
2022/02/26 00:27:44;;;;;;;17.35;11.45;;;;;;;0.45;68.85;99654.06;5062240;28;20029;-58
2022/02/26 00:30:10;;;;;;;17.15;11.07;;;;;;;0.52;68.64;99650.78;5063417;28;20028;-58
2022/02/26 00:32:36;;;;;;;15.00;10.38;;;;;;;0.40;69.04;99653.13;5063119;28;20025;-58
2022/02/26 00:35:02;;;;;;;17.00;10.88;;;;;;;0.44;69.46;99662.56;5063209;28;20100;-57
2022/02/26 00:37:29;;;;;;;18.75;11.25;;;;;;;0.63;69.54;99657.81;5063266;28;20029;-58
2022/02/26 00:39:55;;;;;;;15.88;10.25;;;;;;;0.59;68.74;99666.22;5062952;28;20183;-57
2022/02/26 00:42:20;;;;;;;14.63;9.90;;;;;;;0.66;68.91;99665.50;5063126;28;20032;-59
2022/02/26 00:44:46;;;;;;;16.23;10.60;;;;;;;0.62;69.22;99664.56;5062018;28;20036;-58
2022/02/26 00:47:11;;;;;;;15.00;10.60;;;;;;;0.59;69.17;99653.47;5057030;28;20044;-58
2022/02/26 00:49:52;;;;;;;17.77;11.07;;;;;;;0.55;68.53;99649.16;5061713;28;20025;-59
2022/02/26 00:52:24;;;;;;;14.60;10.38;;;;;;;-0.08;69.51;99588.53;5061551;28;20272;-58
2022/02/26 00:54:50;;;;;;;18.60;10.95;;;;;;;0.06;69.51;99609.19;5061997;28;20044;-58
2022/02/26 00:57:16;;;;;;;15.77;10.70;;;;;;;0.32;69.58;99655.50;5063102;28;20029;-59
2022/02/26 00:59:42;;;;;;;19.40;11.35;;;;;;;0.14;69.69;99638.22;5062783;28;20364;-59
2022/02/26 01:02:08;;;;;;;19.08;11.68;;;;;;;0.33;69.94;99653.84;5062456;28;20032;-59
2022/02/26 01:04:35;;;;;;;16.15;10.98;;;;;;;0.43;70.07;99659.94;5062535;28;20112;-59
2022/02/26 01:07:00;;;;;;;20.65;11.30;;;;;;;0.53;70.10;99659.31;5062976;28;20021;-59
2022/02/26 01:09:27;;;;;;;18.02;11.32;;;;;;;0.62;70.51;99653.53;5032567;28;20188;-59
2022/02/26 01:11:53;;;;;;;19.15;10.82;;;;;;;0.71;69.72;99665.56;5049667;28;20290;-58
2022/02/26 01:14:19;;;;;;;16.42;10.45;;;;;;;0.60;70.12;99657.72;5051911;28;20340;-59
2022/02/26 01:16:44;;;;;;;19.48;11.57;;;;;;;0.52;69.23;99655.91;5053775;28;20029;-60
2022/02/26 01:19:10;;;;;;;16.35;10.85;;;;;;;0.52;68.98;99661.00;5062297;28;20032;-59
2022/02/26 01:21:36;;;;;;;17.95;10.75;;;;;;;0.64;69.03;99659.50;5060847;28;20364;-59
2022/02/26 01:24:01;;;;;;;15.68;10.68;;;;;;;0.72;70.80;99652.84;5061638;28;20025;-59
2022/02/26 01:26:27;;;;;;;17.10;11.52;;;;;;;0.60;69.24;99657.72;5061683;28;20056;-59
2022/02/26 01:28:53;;;;;;;21.63;11.30;;;;;;;0.67;70.02;99668.06;5062378;28;20025;-59
2022/02/26 01:31:18;;;;;;;16.67;11.18;;;;;;;0.66;70.15;99663.81;5062896;28;20369;-57
2022/02/26 01:33:44;;;;;;;17.52;11.80;;;;;;;0.67;70.36;99659.56;5062659;28;20025;-57
2022/02/26 01:36:11;;;;;;;16.33;11.27;;;;;;;0.63;69.63;99676.50;5062520;28;20052;-58
2022/02/26 01:38:37;;;;;;;17.95;10.75;;;;;;;0.54;70.29;99652.53;5061444;28;20088;-58
2022/02/26 01:41:04;;;;;;;18.30;11.35;;;;;;;0.41;69.71;99662.47;5062483;28;20116;-57
2022/02/26 01:43:32;;;;;;;18.52;11.57;;;;;;;0.54;70.15;99655.91;5062701;28;20029;-58
2022/02/26 01:45:58;;;;;;;15.57;11.18;;;;;;;0.51;70.11;99633.81;5045916;28;20046;-58
2022/02/26 01:48:23;;;;;;;18.80;11.40;;;;;;;0.54;70.32;99666.09;5061251;28;20025;-58
2022/02/26 01:50:49;;;;;;;18.73;11.52;;;;;;;0.66;70.28;99660.41;5062354;28;20047;-58
2022/02/26 01:53:15;;;;;;;14.80;10.75;;;;;;;0.76;69.30;99659.72;5062110;28;20025;-58
2022/02/26 01:55:40;;;;;;;16.08;11.23;;;;;;;0.72;69.42;99659.66;5062130;28;20029;-58
2022/02/26 01:58:06;;;;;;;16.58;11.50;;;;;;;0.63;69.73;99658.66;5062504;28;20029;-59
2022/02/26 02:00:32;;;;;;;18.00;11.10;;;;;;;0.58;70.12;99656.84;5062175;28;20051;-58
2022/02/26 02:02:58;;;;;;;19.60;10.93;;;;;;;0.61;69.58;99662.84;5062386;28;20314;-59
2022/02/26 02:05:27;;;;;;;18.88;11.45;;;;;;;0.68;70.14;99662.16;5062367;28;20101;-58
2022/02/26 02:07:53;;;;;;;16.05;10.23;;;;;;;0.61;70.33;99664.53;5058146;28;20314;-58
2022/02/26 02:10:20;;;;;;;17.45;10.52;;;;;;;0.69;69.49;99663.84;5062622;28;20313;-58
2022/02/26 02:12:46;;;;;;;17.10;10.50;;;;;;;0.71;69.96;99660.47;5061155;28;20036;-59
2022/02/26 02:15:12;;;;;;;13.15;9.82;;;;;;;0.71;69.73;99668.97;5064211;28;20067;-60
2022/02/26 02:17:41;;;;;;;15.02;10.20;;;;;;;0.55;69.80;99690.75;5065765;28;20032;-58
2022/02/26 02:20:07;;;;;;;16.15;10.10;;;;;;;0.68;70.01;99682.53;5065948;28;20206;-58
2022/02/26 02:22:32;;;;;;;14.30;9.27;;;;;;;0.76;69.39;99679.28;5065742;28;20021;-58
2022/02/26 02:24:58;;;;;;;15.80;9.57;;;;;;;0.67;69.92;99680.81;5065889;28;20052;-57
2022/02/26 02:27:23;;;;;;;16.75;10.35;;;;;;;0.60;70.29;99680.66;5065859;28;20028;-58
2022/02/26 02:29:49;;;;;;;16.85;10.07;;;;;;;0.73;69.60;99687.72;5065439;28;20025;-57
2022/02/26 02:32:14;;;;;;;15.90;10.15;;;;;;;0.76;69.69;99684.38;5064288;28;20058;-57
2022/02/26 02:34:40;;;;;;;13.57;9.55;;;;;;;0.69;69.80;99675.75;5065591;28;20078;-57
2022/02/26 02:37:10;;;;;;;14.93;10.15;;;;;;;0.75;70.29;99675.00;5065802;28;20037;-58
2022/02/26 02:39:36;;;;;;;17.85;10.98;;;;;;;0.64;69.83;99680.75;5064568;28;20071;-58
2022/02/26 02:42:02;;;;;;;15.93;10.73;;;;;;;0.78;69.90;99683.53;5065484;28;20037;-59
2022/02/26 02:44:27;;;;;;;18.52;11.15;;;;;;;0.80;70.11;99674.25;5065483;28;20100;-58
2022/02/26 02:46:53;;;;;;;18.45;11.32;;;;;;;0.73;70.31;99682.63;5065422;28;20248;-58
2022/02/26 02:49:18;;;;;;;14.15;10.38;;;;;;;0.38;70.96;99681.94;5065382;28;20029;-58
2022/02/26 02:51:44;;;;;;;17.02;11.25;;;;;;;0.61;70.37;99677.28;5065061;28;20556;-58
2022/02/26 02:54:10;;;;;;;15.43;10.15;;;;;;;0.78;70.40;99690.34;5065347;28;20310;-58
2022/02/26 02:56:35;;;;;;;16.83;10.90;;;;;;;0.74;69.76;99680.91;5065120;28;20329;-58
2022/02/26 02:59:01;;;;;;;15.52;10.50;;;;;;;0.64;70.60;99679.88;5065017;28;20021;-58
2022/02/26 03:01:26;;;;;;;16.00;10.35;;;;;;;0.80;70.76;99688.69;5064597;28;20040;-57
2022/02/26 03:03:52;;;;;;;14.68;10.13;;;;;;;0.69;70.12;99689.34;5064685;28;20043;-58
2022/02/26 03:06:17;;;;;;;14.20;9.93;;;;;;;0.72;70.22;99691.09;5065029;28;20029;-58
2022/02/26 03:08:43;;;;;;;16.10;10.60;;;;;;;0.83;70.48;99679.41;5064166;28;20020;-58
2022/02/26 03:11:09;;;;;;;15.75;9.68;;;;;;;0.72;69.85;99680.88;5064905;28;20029;-57
2022/02/26 03:13:36;;;;;;;14.45;10.25;;;;;;;0.64;70.06;99687.53;5064710;28;20021;-58
2022/02/26 03:16:02;;;;;;;15.85;10.40;;;;;;;0.75;70.96;99686.03;5064473;28;20028;-58
2022/02/26 03:18:27;;;;;;;14.95;10.13;;;;;;;0.92;70.02;99695.69;5064707;28;20025;-58
2022/02/26 03:20:53;;;;;;;16.00;9.75;;;;;;;0.91;70.14;99688.88;5064794;28;20017;-58
2022/02/26 03:23:19;;;;;;;16.90;10.10;;;;;;;0.84;69.61;99693.88;5064863;28;20013;-57
2022/02/26 03:25:44;;;;;;;12.35;8.68;;;;;;;0.85;69.86;99700.66;5052882;28;20028;-58
2022/02/26 03:28:11;;;;;;;16.55;9.88;;;;;;;0.94;70.34;99697.44;5064344;28;20032;-58
2022/02/26 03:30:37;;;;;;;15.43;10.25;;;;;;;0.91;69.70;99691.41;5064422;28;20385;-58
2022/02/26 03:33:04;;;;;;;15.95;9.70;;;;;;;0.76;70.11;99684.38;5064416;28;20048;-58
2022/02/26 03:35:30;;;;;;;13.57;9.18;;;;;;;0.81;69.87;99680.19;5064408;28;20025;-58
2022/02/26 03:37:56;;;;;;;14.93;10.15;;;;;;;0.69;70.19;99691.88;5064357;28;20024;-58
2022/02/26 03:40:21;;;;;;;16.23;10.40;;;;;;;0.78;70.40;99693.75;5063433;28;20035;-58
2022/02/26 03:42:48;;;;;;;17.73;10.75;;;;;;;0.67;70.69;99698.66;5064229;28;20025;-58
2022/02/26 03:45:14;;;;;;;13.45;8.88;;;;;;;0.81;70.06;99709.13;5063934;28;20028;-58
2022/02/26 03:47:40;;;;;;;14.23;9.48;;;;;;;0.82;70.98;99715.06;5064523;28;20202;-58
2022/02/26 03:50:08;;;;;;;15.45;10.07;;;;;;;0.96;70.15;99733.16;5064219;28;20059;-58
2022/02/26 03:52:34;;;;;;;14.75;9.48;;;;;;;0.96;70.43;99717.88;5063801;28;20071;-58
2022/02/26 03:55:02;;;;;;;13.55;9.45;;;;;;;1.00;70.35;99728.13;5063896;28;20025;-58
2022/02/26 03:57:32;;;;;;;14.65;9.77;;;;;;;0.96;70.25;99721.25;5063825;28;20088;-59
2022/02/26 03:59:58;;;;;;;19.40;10.27;;;;;;;0.99;69.89;99720.47;5063926;28;20092;-58
2022/02/26 04:02:24;;;;;;;19.77;10.10;;;;;;;0.95;70.10;99727.19;5062076;28;20032;-59
2022/02/26 04:04:50;;;;;;;13.75;9.43;;;;;;;0.99;70.24;99733.22;5058051;28;20033;-58
2022/02/26 04:07:16;;;;;;;16.90;10.00;;;;;;;1.03;70.31;99735.00;5061983;28;20079;-59
2022/02/26 04:09:42;;;;;;;13.15;8.85;;;;;;;1.10;71.27;99741.03;5052583;28;20221;-58
2022/02/26 04:12:08;;;;;;;13.15;9.20;;;;;;;1.10;70.93;99749.56;5059713;28;20029;-58
2022/02/26 04:14:34;;;;;;;15.25;9.75;;;;;;;1.01;71.37;99745.16;5062170;28;20029;-58
2022/02/26 04:16:59;;;;;;;15.05;9.63;;;;;;;1.06;72.09;99754.59;5062066;28;20067;-58
2022/02/26 04:19:25;;;;;;;14.73;9.95;;;;;;;1.07;72.52;99761.38;5061887;28;20258;-58
2022/02/26 04:21:50;;;;;;;13.93;8.63;;;;;;;1.07;73.29;99758.84;5061713;28;20074;-58
2022/02/26 04:24:17;;;;;;;14.35;9.80;;;;;;;1.11;73.64;99773.38;5062128;28;20043;-58
2022/02/26 04:26:44;;;;;;;15.50;9.75;;;;;;;1.02;73.91;99768.97;5063182;28;20317;-58
2022/02/26 04:29:11;;;;;;;14.32;9.43;;;;;;;1.02;74.03;99789.38;5063284;28;20095;-58
2022/02/26 04:31:37;;;;;;;13.07;9.23;;;;;;;1.09;74.82;99796.28;5063193;28;20324;-58
2022/02/26 04:34:04;;;;;;;16.95;9.98;;;;;;;1.12;74.78;99786.16;5063148;28;20257;-60
2022/02/26 04:36:30;;;;;;;13.02;9.23;;;;;;;1.22;74.26;99781.22;5063071;28;20028;-58
2022/02/26 04:38:56;;;;;;;15.52;10.15;;;;;;;1.21;75.00;99780.34;5061835;28;20029;-58
2022/02/26 04:41:22;;;;;;;17.15;10.70;;;;;;;1.09;74.55;99770.78;5061875;28;20191;-57
2022/02/26 04:43:47;;;;;;;16.80;10.60;;;;;;;1.09;74.91;99778.44;5061549;28;20248;-57
2022/02/26 04:46:13;;;;;;;13.65;9.90;;;;;;;1.16;74.72;99776.88;5062577;28;20025;-57
2022/02/26 04:48:39;;;;;;;14.02;9.75;;;;;;;1.14;74.62;99783.63;5062011;28;20048;-57
2022/02/26 04:51:08;;;;;;;13.32;9.60;;;;;;;1.06;75.15;99783.50;5061298;28;20033;-57
2022/02/26 04:53:38;;;;;;;15.57;10.73;;;;;;;0.90;75.78;99796.75;5062311;28;20082;-57
2022/02/26 04:56:05;;;;;;;11.45;9.13;;;;;;;0.96;75.22;99773.97;5062855;28;20025;-57
2022/02/26 04:58:32;;;;;;;14.50;10.13;;;;;;;1.10;75.78;99792.91;5063185;28;20102;-56
2022/02/26 05:00:58;;;;;;;13.70;9.73;;;;;;;1.13;74.55;99795.53;5062790;28;20233;-56
2022/02/26 05:03:23;;;;;;;15.57;10.25;;;;;;;1.04;74.81;99790.22;5043963;28;20036;-57
2022/02/26 05:05:49;;;;;;;17.20;10.85;;;;;;;1.14;75.18;99794.69;5062825;28;20075;-57
2022/02/26 05:08:15;;;;;;;16.08;10.15;;;;;;;1.17;75.06;99797.31;5058057;28;20025;-57
2022/02/26 05:10:40;;;;;;;15.80;10.05;;;;;;;1.24;75.20;99799.94;5062881;28;20035;-57
2022/02/26 05:13:06;;;;;;;16.52;10.48;;;;;;;1.29;75.12;99806.84;5062540;28;20028;-58
2022/02/26 05:15:31;;;;;;;15.02;10.10;;;;;;;1.29;74.83;99806.84;5062427;28;20331;-56
2022/02/26 05:17:57;;;;;;;14.60;10.65;;;;;;;1.21;74.56;99816.06;5060620;28;20033;-56
2022/02/26 05:20:23;;;;;;;18.60;11.27;;;;;;;1.12;75.09;99811.66;5062173;28;20032;-58
2022/02/26 05:22:48;;;;;;;14.60;10.40;;;;;;;1.28;75.50;99812.78;5061973;28;20033;-57
2022/02/26 05:25:14;;;;;;;16.00;11.80;;;;;;;1.23;74.86;99819.50;5061903;28;20036;-57
2022/02/26 05:27:43;;;;;;;18.98;11.80;;;;;;;1.23;75.51;99828.84;5062146;28;20032;-57
2022/02/26 05:30:11;;;;;;;19.08;11.65;;;;;;;1.32;74.65;99823.91;5062735;28;20479;-58
2022/02/26 05:32:37;;;;;;;16.83;10.95;;;;;;;1.28;74.90;99822.13;5062762;28;20040;-57
2022/02/26 05:35:04;;;;;;;19.30;11.23;;;;;;;1.34;75.26;99824.78;5062351;28;20385;-57
2022/02/26 05:37:30;;;;;;;16.05;10.63;;;;;;;1.43;74.51;99826.69;5062517;28;20056;-57
2022/02/26 05:39:55;;;;;;;16.27;10.73;;;;;;;1.51;74.95;99831.09;5061057;28;20029;-57
2022/02/26 05:42:21;;;;;;;18.65;12.00;;;;;;;1.54;75.25;99823.47;5062105;28;20099;-57
2022/02/26 05:44:47;;;;;;;20.52;11.27;;;;;;;1.60;74.78;99834.63;5062579;28;20075;-57
2022/02/26 05:47:12;;;;;;;17.42;11.63;;;;;;;1.63;74.42;99827.03;5062352;28;20025;-58
2022/02/26 05:49:38;;;;;;;14.95;10.57;;;;;;;1.76;74.40;99831.50;5065017;28;20025;-58
2022/02/26 05:52:04;;;;;;;16.60;10.45;;;;;;;1.62;74.23;99826.16;5065939;28;20025;-57
2022/02/26 05:54:30;;;;;;;16.17;11.43;;;;;;;1.50;74.35;99839.56;5066246;28;20071;-58
2022/02/26 05:56:55;;;;;;;15.40;10.95;;;;;;;1.57;74.52;99844.75;5066311;28;20021;-57
2022/02/26 05:59:21;;;;;;;15.85;11.50;;;;;;;1.67;74.74;99839.00;5066199;28;20195;-58
2022/02/26 06:01:46;;;;;;;17.23;11.68;;;;;;;1.65;74.19;99843.22;5065688;28;20285;-57
2022/02/26 06:04:12;;;;;;;17.98;11.48;;;;;;;1.73;74.15;99850.16;5065560;28;20071;-57
2022/02/26 06:06:37;;;;;;;14.85;10.80;;;;;;;1.79;74.01;99857.06;5065847;28;20218;-57
2022/02/26 06:09:03;;;;;;;15.30;11.15;;;;;;;1.68;74.32;99848.34;5062178;28;20033;-56
2022/02/26 06:11:28;;;;;;;17.65;11.82;;;;;;;1.90;74.18;99865.75;5065864;28;20040;-56
2022/02/26 06:13:54;;;;;;;14.00;10.32;;;;;;;1.95;74.12;99863.28;5064755;28;20068;-57
2022/02/26 06:16:21;;;;;;;18.80;12.10;;;;;;;1.94;73.83;99864.13;5065579;28;20044;-57
2022/02/26 06:18:46;;;;;;;14.45;10.27;;;;;;;2.04;74.09;99876.22;5065870;28;20102;-57
2022/02/26 06:21:12;;;;;;;16.73;11.18;;;;;;;2.03;73.38;99877.03;5065874;28;20033;-58
2022/02/26 06:23:38;;;;;;;15.40;10.95;;;;;;;1.99;73.41;99890.59;5065722;28;20067;-57
2022/02/26 06:26:03;;;;;;;14.48;11.13;;;;;;;2.04;73.10;99890.69;5064557;28;20043;-56
2022/02/26 06:28:29;;;;;;;17.15;11.63;;;;;;;2.12;72.57;99899.31;5065326;28;20035;-57
2022/02/26 06:30:55;;;;;;;18.27;11.48;;;;;;;2.20;73.22;99900.31;5065714;28;20218;-57
2022/02/26 06:33:21;;;;;;;14.65;10.55;;;;;;;2.24;73.84;99893.56;5065498;28;20071;-57
2022/02/26 06:35:46;;;;;;;15.95;11.50;;;;;;;2.24;72.93;99896.13;5064268;28;20023;-57
2022/02/26 06:38:12;;;;;;;16.60;11.52;;;;;;;2.16;73.04;99906.19;5065061;28;20111;-57
2022/02/26 06:40:38;;;;;;;19.50;12.07;;;;;;;2.20;72.74;99902.84;5064724;28;20322;-57
2022/02/26 06:43:04;;;;;;;16.55;10.98;;;;;;;2.29;73.08;99911.50;5064082;28;20024;-57
2022/02/26 06:45:30;;;;;;;16.20;10.82;;;;;;;2.35;72.67;99915.03;5064179;28;20103;-57
2022/02/26 06:47:56;;;;;;;15.27;11.13;;;;;;;2.36;72.80;99908.22;5065463;28;20074;-57
2022/02/26 06:50:21;;;;;;;17.50;11.43;;;;;;;2.38;72.66;99909.97;5065168;28;20031;-58
2022/02/26 06:52:47;;;;;;;16.20;12.02;;;;;;;2.29;72.52;99912.38;5064764;28;20033;-57
2022/02/26 06:55:12;;;;;;;17.23;10.85;;;;;;;2.32;72.90;99925.19;5065017;28;20212;-57
2022/02/26 06:57:38;;;;;;;17.45;11.40;;;;;;;2.35;72.95;99927.81;5065157;28;20032;-57
2022/02/26 07:00:05;;;;;;;17.55;11.18;;;;;;;2.41;72.51;99927.91;5063459;28;20546;-57
2022/02/26 07:02:32;;;;;;;16.67;11.82;;;;;;;2.40;72.88;99922.75;5064523;28;20104;-57
2022/02/26 07:04:57;;;;;;;16.35;11.88;;;;;;;2.37;72.48;99935.50;5064555;28;20045;-58
2022/02/26 07:07:23;;;;;;;18.70;12.10;;;;;;;2.42;72.33;99928.75;5063928;28;20032;-58
2022/02/26 07:09:49;;;;;;;20.80;12.93;;;;;;;2.36;73.18;99918.44;5064698;28;20209;-58
2022/02/26 07:12:16;;;;;;;18.95;11.25;;;;;;;2.46;73.07;99935.63;5064564;28;20032;-57
2022/02/26 07:14:42;;;;;;;16.08;10.73;;;;;;;2.57;73.26;99938.38;5063323;28;20030;-58
2022/02/26 07:17:08;;;;;;;17.33;10.93;;;;;;;2.63;72.66;99935.03;5064245;28;20025;-57
2022/02/26 07:19:34;;;;;;;16.67;9.73;;;;;;;2.60;72.28;99940.97;5064331;28;20028;-57
2022/02/26 07:22:00;;;;;;;13.77;9.10;;;;;;;2.61;72.07;99931.59;5064364;28;20025;-58
2022/02/26 07:24:26;;;;;;;18.25;10.18;;;;;;;2.69;72.12;99946.19;5063228;28;20088;-58
2022/02/26 07:26:52;;;;;;;11.93;8.52;;;;;;;2.62;72.16;99951.22;5064129;28;20270;-58
2022/02/26 07:29:18;;;;;;;17.52;7.90;;;;;;;2.56;72.19;99942.59;5064292;28;20123;-58
2022/02/26 07:31:43;;;;;;;13.23;7.80;;;;;;;2.62;72.21;99948.66;5064462;28;20036;-57
2022/02/26 07:34:09;;;;;;;13.98;8.27;;;;;;;2.59;71.79;99954.56;5064163;28;20028;-61
2022/02/26 07:36:35;;;;;;;14.35;8.13;;;;;;;2.69;71.69;99961.53;5063293;28;20056;-57
2022/02/26 07:39:02;;;;;;;10.90;8.50;;;;;;;2.74;72.11;99966.75;5064203;28;20033;-58
2022/02/26 07:41:28;;;;;;;13.93;8.32;;;;;;;2.85;71.66;99972.88;5064146;28;20123;-58
2022/02/26 07:43:53;;;;;;;10.63;7.60;;;;;;;2.57;71.06;99935.81;5063976;28;20032;-58
2022/02/26 07:46:19;;;;;;;13.00;7.90;;;;;;;2.78;71.09;99963.41;5064241;28;20033;-58
2022/02/26 07:48:44;;;;;;;11.00;7.97;;;;;;;2.90;71.09;99970.38;5063705;28;20056;-58
2022/02/26 07:51:10;;;;;;;9.23;6.88;;;;;;;2.81;70.54;99960.00;5063797;28;20033;-58
2022/02/26 07:53:36;;;;;;;12.52;8.48;;;;;;;2.84;71.23;99981.38;5063486;28;20040;-59
2022/02/26 07:56:03;;;;;;;18.38;7.45;;;;;;;2.85;71.10;99985.66;5063668;28;20094;-59
2022/02/26 07:58:29;;;;;;;13.02;7.25;;;;;;;3.01;71.46;99989.31;5064060;28;20031;-59
2022/02/26 08:00:54;;;;;;;14.07;8.00;;;;;;;2.99;71.03;99983.28;5062689;28;20269;-59
2022/02/26 08:03:20;;;;;;;12.15;7.20;;;;;;;3.08;71.18;99985.13;5061741;28;20041;-59
2022/02/26 08:05:45;;;;;;;12.40;7.43;;;;;;;2.78;71.29;99945.50;5063020;28;20079;-58
2022/02/26 08:08:11;;;;;;;12.45;8.13;;;;;;;3.10;69.94;99988.56;5061937;28;20027;-59
2022/02/26 08:10:37;;;;;;;12.05;7.28;;;;;;;3.16;70.19;99995.47;5063212;28;20020;-58
2022/02/26 08:13:03;;;;;;;9.10;6.68;;;;;;;3.01;70.16;99991.84;5063147;28;20028;-58
2022/02/26 08:15:29;;;;;;;12.73;6.90;;;;;;;3.02;70.18;99992.72;5063239;28;20021;-58
2022/02/26 08:17:56;;;;;;;14.60;6.95;;;;;;;3.14;69.75;99990.31;5062051;28;20051;-58
2022/02/26 08:20:23;;;;;;;9.32;6.72;;;;;;;3.09;69.65;99995.38;5063486;28;20359;-58
2022/02/26 08:22:49;;;;;;;9.88;5.93;;;;;;;3.15;69.65;99989.50;5062653;28;20037;-57
2022/02/26 08:25:15;;;;;;;11.40;6.50;;;;;;;3.11;70.10;99993.69;5061789;28;20267;-59
2022/02/26 08:27:42;;;;;;;11.73;6.22;;;;;;;3.10;69.64;99986.00;5062878;28;20033;-57
2022/02/26 08:30:10;;;;;;;9.95;6.20;;;;;;;3.04;68.91;99976.53;5063324;28;20090;-58
2022/02/26 08:32:36;;;;;;;9.35;6.07;;;;;;;3.14;69.53;100000.56;5063121;28;20123;-58
2022/02/26 08:35:04;;;;;;;12.32;6.32;;;;;;;3.04;68.82;99994.44;5063109;28;20092;-57
2022/02/26 08:37:29;;;;;;;10.38;6.28;;;;;;;3.17;69.38;99990.38;5063174;28;20028;-59
2022/02/26 08:39:55;;;;;;;9.88;6.53;;;;;;;3.13;68.79;99995.44;5062753;28;20199;-58
2022/02/26 08:42:21;;;;;;;11.68;6.45;;;;;;;3.11;68.80;99987.72;5062910;28;20033;-59
2022/02/26 08:44:47;;;;;;;8.68;5.57;;;;;;;3.26;68.38;99992.19;5062924;28;20211;-58
2022/02/26 08:47:13;;;;;;;9.88;6.22;;;;;;;3.41;68.97;99999.22;5063243;28;20091;-58
2022/02/26 08:49:39;;;;;;;8.85;6.10;;;;;;;3.43;68.68;99993.28;5061979;28;20029;-59
2022/02/26 08:52:05;;;;;;;12.65;6.43;;;;;;;3.48;68.68;100002.69;5062921;28;20052;-58
2022/02/26 08:54:31;;;;;;;12.55;6.45;;;;;;;3.47;68.36;99998.44;5061374;28;20033;-59
2022/02/26 08:56:57;;;;;;;11.98;6.15;;;;;;;3.49;68.11;99996.75;5061176;28;20017;-58
2022/02/26 08:59:23;;;;;;;10.35;6.30;;;;;;;3.35;67.74;99994.88;5062626;28;20555;-59
2022/02/26 09:01:48;;;;;;;9.60;5.70;;;;;;;3.36;68.19;99993.16;5061557;28;20075;-59
2022/02/26 09:04:14;;;;;;;14.43;6.10;;;;;;;3.35;68.18;99994.88;5062447;28;20334;-59
2022/02/26 09:06:40;;;;;;;10.60;6.35;;;;;;;3.42;68.04;100001.78;5062722;28;20028;-58
2022/02/26 09:09:09;;;;;;;12.25;5.88;;;;;;;3.58;67.92;100007.09;5058110;28;20092;-59
2022/02/26 09:11:37;;;;;;;12.68;6.60;;;;;;;3.57;67.73;100001.09;5062489;28;20119;-59
2022/02/26 09:14:03;;;;;;;10.20;6.15;;;;;;;3.59;68.11;100007.13;5062676;28;20041;-58
2022/02/26 09:16:29;;;;;;;10.02;6.10;;;;;;;3.51;67.99;100007.88;5062465;28;20103;-59
2022/02/26 09:18:55;;;;;;;10.15;6.20;;;;;;;3.53;67.59;100011.31;5062455;28;20043;-59
2022/02/26 09:21:20;;;;;;;8.88;5.70;;;;;;;3.53;66.95;99999.34;5061344;28;20033;-60
2022/02/26 09:23:46;;;;;;;8.63;5.72;;;;;;;3.61;67.66;100010.56;5065329;28;20687;-59
2022/02/26 09:26:12;;;;;;;11.10;5.28;;;;;;;3.75;67.09;100015.00;5069098;28;20086;-59
2022/02/26 09:28:41;;;;;;;9.27;5.20;;;;;;;3.80;66.79;100019.34;5068736;28;20029;-58
2022/02/26 09:31:08;;;;;;;10.23;5.40;;;;;;;3.77;66.35;100020.97;5069219;28;20112;-60
2022/02/26 09:33:35;;;;;;;12.20;5.75;;;;;;;3.81;66.66;100027.88;5067823;28;20024;-59
2022/02/26 09:36:02;;;;;;;10.23;5.80;;;;;;;3.67;66.57;100016.59;5068766;28;20253;-59
2022/02/26 09:38:29;;;;;;;8.65;5.18;;;;;;;3.71;67.38;100029.44;5068055;28;20025;-59
2022/02/26 09:40:56;;;;;;;11.00;5.30;;;;;;;3.43;67.13;100002.66;5068671;28;20071;-59
2022/02/26 09:43:23;;;;;;;12.52;5.75;;;;;;;3.60;66.72;100015.66;5066698;28;20033;-59
2022/02/26 09:45:49;;;;;;;7.97;4.80;;;;;;;3.70;66.41;100027.72;5068459;28;20029;-58
2022/02/26 09:48:15;;;;;;;7.93;4.90;;;;;;;3.64;67.07;99991.81;5047492;28;20049;-59
2022/02/26 09:50:41;;;;;;;13.10;5.50;;;;;;;3.84;66.94;100020.22;5061451;28;20021;-59
2022/02/26 09:53:08;;;;;;;10.07;5.60;;;;;;;4.01;66.21;100040.06;5067739;28;20025;-60
2022/02/26 09:55:35;;;;;;;10.77;5.70;;;;;;;3.79;66.20;100029.53;5068515;28;20029;-59
2022/02/26 09:58:01;;;;;;;8.82;4.93;;;;;;;3.73;66.58;100022.63;5067711;28;20044;-60
2022/02/26 10:00:27;;;;;;;8.52;4.78;;;;;;;3.77;66.61;100037.19;5068744;28;20045;-61
2022/02/26 10:02:52;;;;;;;13.38;5.55;;;;;;;3.84;66.16;100044.97;5067784;28;20214;-59
2022/02/26 10:05:18;;;;;;;8.00;4.75;;;;;;;3.75;65.59;100038.06;5068492;28;20091;-62
2022/02/26 10:07:46;;;;;;;8.60;4.75;;;;;;;3.69;66.49;100038.84;5064366;28;20029;-59
2022/02/26 10:10:18;;;;;;;7.22;4.55;;;;;;;3.83;65.94;100043.25;5067065;28;20025;-59
2022/02/26 10:12:50;;;;;;;8.68;4.70;;;;;;;3.80;66.06;100039.81;5066265;28;20025;-59
2022/02/26 10:15:22;;;;;;;12.48;4.38;;;;;;;3.78;65.58;100043.22;5067443;28;20036;-59
2022/02/26 10:18:11;;;;;;;6.70;3.85;;;;;;;3.83;65.61;100068.88;5067386;28;20048;-60
2022/02/26 10:20:56;;;;;;;6.13;3.60;;;;;;;3.64;66.09;99996.94;5068864;28;20039;-59
2022/02/26 10:23:22;;;;;;;6.15;3.58;;;;;;;3.85;65.99;100054.34;5057337;28;20029;-60
2022/02/26 10:25:48;;;;;;;7.95;3.88;;;;;;;3.81;65.18;100050.91;5062372;28;20116;-59
2022/02/26 10:28:15;;;;;;;6.15;4.07;;;;;;;3.74;65.59;100052.53;5061682;28;20056;-58
2022/02/26 10:30:48;;;;;;;5.85;3.60;;;;;;;3.35;64.97;99994.00;5068096;28;20024;-60
2022/02/26 10:33:24;;;;;;;5.70;3.45;;;;;;;3.32;66.05;99976.94;5063183;28;20120;-58
2022/02/26 10:35:59;;;;;;;6.85;3.63;;;;;;;3.47;65.60;99999.28;5063646;28;20047;-58
2022/02/26 10:38:27;;;;;;;6.72;3.80;;;;;;;3.76;66.19;100066.25;5061648;28;20024;-59
2022/02/26 10:41:13;;;;;;;7.03;3.85;;;;;;;3.72;66.38;100059.34;5045830;28;20029;-59
2022/02/26 10:43:39;;;;;;;9.68;4.05;;;;;;;3.68;66.29;100066.97;5050058;28;20376;-59
2022/02/26 10:46:28;;;;;;;7.95;4.15;;;;;;;3.73;65.91;100067.88;5069000;28;20102;-59
2022/02/26 10:49:09;;;;;;;5.82;3.30;;;;;;;3.52;65.79;100040.31;5049214;28;20028;-59
2022/02/26 10:51:43;;;;;;;7.75;4.50;;;;;;;3.84;66.10;100074.00;5048762;28;20033;-58
2022/02/26 10:54:17;;;;;;;6.30;4.15;;;;;;;3.53;65.69;100009.59;5047887;28;20192;-59
2022/02/26 10:56:46;;;;;;;8.75;4.65;;;;;;;3.46;65.67;100012.91;5063964;28;20325;-59
2022/02/26 10:59:25;;;;;;;6.95;4.30;;;;;;;3.48;64.89;100024.06;5065222;28;20398;-61
2022/02/26 11:02:09;;;;;;;9.18;3.70;;;;;;;3.53;65.71;100019.84;5064258;28;20036;-59
2022/02/26 11:04:35;;;;;;;6.03;3.60;;;;;;;3.85;65.17;100077.41;5063947;28;20061;-59
2022/02/26 11:07:02;;;;;;;6.50;3.60;;;;;;;3.82;64.71;100085.94;5064802;28;20084;-59
2022/02/26 11:09:28;;;;;;;8.43;3.80;;;;;;;3.84;65.09;100085.97;5063621;28;20032;-59
2022/02/26 11:11:58;;;;;;;5.05;3.53;;;;;;;3.89;66.33;100082.63;5064457;28;20024;-59
2022/02/26 11:14:27;;;;;;;6.05;4.07;;;;;;;3.92;64.93;100105.72;5064325;28;20028;-60
2022/02/26 11:16:56;;;;;;;8.32;4.60;;;;;;;3.48;65.84;100029.19;5064527;28;20029;-59
2022/02/26 11:19:25;;;;;;;7.47;4.38;;;;;;;3.98;66.18;100089.56;5064654;28;20028;-60
2022/02/26 11:21:52;;;;;;;8.65;5.60;;;;;;;3.87;65.25;100068.06;5060188;28;20029;-60
2022/02/26 11:24:18;;;;;;;8.23;4.45;;;;;;;4.03;64.30;100087.88;5054215;28;20075;-60
2022/02/26 11:26:45;;;;;;;7.97;4.47;;;;;;;4.13;64.53;100088.84;5062086;28;20318;-60